Time;durP1;ratioP1;P1;durP2;ratioP2;P2;SDS_P1;SDS_P2;PMS_P1;PMS_P2;Temp;Humidity;BMP_temperature;BMP_pressure;BME280_temperature;BME280_humidity;BME280_pressure;Samples;Min_cycle;Max_cycle;Signal;HPM_P1;HPM_P2
2023/02/06 00:01:48;;;;;;;29.03;20.07;;;3.60;99.90;;;;;;4972870;28;20894;-70
2023/02/06 00:04:14;;;;;;;25.37;19.27;;;3.50;99.90;;;;;;4971719;28;20233;-70
2023/02/06 00:06:39;;;;;;;24.20;18.93;;;3.60;99.90;;;;;;4968705;28;20869;-70
2023/02/06 00:09:06;;;;;;;27.03;20.07;;;3.60;99.90;;;;;;4970888;28;20212;-70
2023/02/06 00:11:31;;;;;;;30.23;19.50;;;3.70;99.90;;;;;;4972402;28;20185;-70
2023/02/06 00:13:57;;;;;;;28.23;19.23;;;3.60;99.90;;;;;;4972344;28;20439;-70
2023/02/06 00:16:29;;;;;;;27.93;20.53;;;3.70;99.90;;;;;;4974109;28;20188;-70
2023/02/06 00:18:57;;;;;;;31.43;20.17;;;3.60;99.90;;;;;;4964047;28;20224;-71
2023/02/06 00:21:24;;;;;;;31.27;21.70;;;3.50;99.90;;;;;;4972860;28;20436;-71
2023/02/06 00:23:51;;;;;;;28.73;19.83;;;3.50;99.90;;;;;;4970024;28;20475;-70
2023/02/06 00:26:17;;;;;;;30.33;21.43;;;3.60;99.90;;;;;;4968703;28;20831;-70
2023/02/06 00:28:43;;;;;;;29.57;20.50;;;3.60;99.90;;;;;;4969899;28;20459;-71
2023/02/06 00:31:09;;;;;;;32.97;21.50;;;3.50;99.90;;;;;;4971562;28;20572;-70
2023/02/06 00:33:35;;;;;;;31.70;20.67;;;3.40;99.90;;;;;;4973414;28;20478;-71
2023/02/06 00:36:01;;;;;;;29.37;21.70;;;3.50;99.90;;;;;;4965375;28;20565;-70
2023/02/06 00:38:27;;;;;;;36.13;23.37;;;3.50;99.90;;;;;;4970458;28;20602;-71
2023/02/06 00:40:53;;;;;;;38.23;23.40;;;3.50;99.90;;;;;;4972631;28;20438;-70
2023/02/06 00:43:18;;;;;;;31.20;22.23;;;3.50;99.90;;;;;;4972616;28;20290;-70
2023/02/06 00:45:44;;;;;;;36.90;23.20;;;3.50;99.90;;;;;;4969634;28;20191;-71
2023/02/06 00:48:09;;;;;;;35.43;22.37;;;3.50;99.90;;;;;;4971848;28;20208;-70
2023/02/06 00:50:36;;;;;;;35.60;23.20;;;3.50;99.90;;;;;;4969241;28;20187;-70
2023/02/06 00:53:01;;;;;;;39.00;23.00;;;3.50;99.90;;;;;;4971959;28;20215;-71
2023/02/06 00:55:27;;;;;;;38.50;22.30;;;3.60;99.90;;;;;;4972117;28;20533;-70
2023/02/06 00:57:52;;;;;;;33.70;23.07;;;3.50;99.90;;;;;;4971399;28;20212;-71
2023/02/06 01:00:18;;;;;;;36.60;24.00;;;3.50;99.90;;;;;;4970707;28;20204;-71
2023/02/06 01:02:43;;;;;;;37.63;22.93;;;3.50;99.90;;;;;;4971403;28;20215;-71
2023/02/06 01:05:09;;;;;;;36.07;25.20;;;3.50;99.90;;;;;;4967667;28;20187;-71
2023/02/06 01:07:39;;;;;;;34.30;23.20;;;3.40;99.90;;;;;;4969719;28;20222;-71
2023/02/06 01:10:06;;;;;;;39.23;24.27;;;3.50;99.90;;;;;;4968942;28;20937;-70
2023/02/06 01:12:34;;;;;;;41.50;23.70;;;3.50;99.90;;;;;;4971298;28;20439;-71
2023/02/06 01:15:00;;;;;;;38.93;23.70;;;3.60;99.90;;;;;;4970588;28;20431;-71
2023/02/06 01:17:27;;;;;;;39.93;24.17;;;3.50;99.90;;;;;;4972007;28;20844;-71
2023/02/06 01:19:52;;;;;;;39.47;26.90;;;3.50;99.90;;;;;;4970626;28;20455;-70
2023/02/06 01:22:18;;;;;;;36.50;24.57;;;3.50;99.90;;;;;;4971784;28;20498;-71
2023/02/06 01:24:43;;;;;;;36.87;23.50;;;3.40;99.90;;;;;;4975030;28;20295;-71
2023/02/06 01:27:09;;;;;;;38.50;26.40;;;3.40;99.90;;;;;;4972830;28;20180;-71
2023/02/06 01:29:34;;;;;;;38.17;25.00;;;3.40;99.90;;;;;;4973881;28;20196;-71
2023/02/06 01:32:00;;;;;;;44.87;26.20;;;3.40;99.90;;;;;;4976989;28;20183;-71
2023/02/06 01:34:25;;;;;;;40.03;24.07;;;3.50;99.90;;;;;;4972908;28;20208;-71
2023/02/06 01:36:51;;;;;;;36.87;25.60;;;3.50;99.90;;;;;;4974724;28;20570;-71
2023/02/06 01:39:16;;;;;;;44.97;26.93;;;3.50;99.90;;;;;;4973176;28;20217;-71
2023/02/06 01:41:42;;;;;;;40.43;24.40;;;3.50;99.90;;;;;;4974662;28;20184;-71
2023/02/06 01:44:17;;;;;;;41.83;25.60;;;3.50;99.90;;;;;;4978505;28;20254;-71
2023/02/06 01:46:46;;;;;;;45.70;26.17;;;3.50;99.90;;;;;;4972089;28;20203;-70
2023/02/06 01:49:18;;;;;;;49.77;28.83;;;3.60;99.90;;;;;;4972758;28;20451;-71
2023/02/06 01:51:44;;;;;;;44.23;26.13;;;3.60;99.90;;;;;;4973576;28;20834;-71
2023/02/06 01:54:12;;;;;;;45.27;26.63;;;3.60;99.90;;;;;;4974319;28;20501;-71
2023/02/06 01:56:48;;;;;;;44.90;26.10;;;3.50;99.90;;;;;;4974874;28;20989;-71
2023/02/06 01:59:14;;;;;;;43.97;26.77;;;3.50;99.90;;;;;;4974182;28;20502;-71
2023/02/06 02:01:41;;;;;;;46.20;28.30;;;3.60;99.90;;;;;;4974097;28;20447;-71
2023/02/06 02:04:13;;;;;;;59.33;29.07;;;3.60;99.90;;;;;;4974683;28;20558;-70
2023/02/06 02:06:39;;;;;;;53.93;29.63;;;3.60;99.90;;;;;;4973512;28;20822;-71
2023/02/06 02:09:06;;;;;;;49.63;27.27;;;3.60;99.90;;;;;;4973981;28;20537;-70
2023/02/06 02:11:36;;;;;;;52.27;27.80;;;3.50;99.90;;;;;;4972632;28;20446;-70
2023/02/06 02:14:06;;;;;;;46.50;27.10;;;3.60;99.90;;;;;;4973716;28;20494;-70
2023/02/06 02:16:50;;;;;;;48.27;27.77;;;3.60;99.90;;;;;;4974893;28;20933;-70
2023/02/06 02:19:51;;;;;;;49.30;28.00;;;3.50;99.90;;;;;;4973944;28;20463;-70
2023/02/06 02:22:44;;;;;;;50.70;27.30;;;3.60;99.90;;;;;;4968810;28;20442;-71
2023/02/06 02:25:39;;;;;;;62.20;28.93;;;3.50;99.90;;;;;;4967774;28;20479;-70
2023/02/06 02:28:29;;;;;;;49.70;27.00;;;3.40;99.90;;;;;;4972179;28;20514;-70
2023/02/06 02:30:54;;;;;;;61.13;27.50;;;3.50;99.90;;;;;;4971163;28;20530;-71
2023/02/06 02:33:45;;;;;;;69.57;29.33;;;3.40;99.90;;;;;;4973446;28;20523;-70
2023/02/06 02:36:37;;;;;;;53.80;28.10;;;3.30;99.90;;;;;;4970415;28;20316;-70
2023/02/06 02:39:19;;;;;;;49.00;28.23;;;3.30;99.90;;;;;;4971448;28;20487;-70
2023/02/06 02:41:58;;;;;;;65.30;31.77;;;3.30;99.90;;;;;;4973132;28;20442;-70
2023/02/06 02:44:42;;;;;;;57.20;31.57;;;3.30;99.90;;;;;;4973918;28;20467;-71
2023/02/06 02:47:13;;;;;;;51.50;29.00;;;3.30;99.90;;;;;;4971208;28;20426;-71
2023/02/06 02:49:39;;;;;;;51.73;28.60;;;3.30;99.90;;;;;;4972893;28;20469;-71
2023/02/06 02:52:05;;;;;;;55.90;30.30;;;3.20;99.90;;;;;;4972068;28;20522;-70
2023/02/06 02:54:30;;;;;;;65.20;30.67;;;3.20;99.90;;;;;;4972612;28;20514;-70
2023/02/06 02:57:02;;;;;;;55.70;29.90;;;3.20;99.90;;;;;;4972991;28;20192;-70
2023/02/06 02:59:34;;;;;;;50.93;29.23;;;3.20;99.90;;;;;;4970404;28;20574;-70
2023/02/06 03:02:31;;;;;;;57.70;31.33;;;3.20;99.90;;;;;;4973434;28;20435;-70
2023/02/06 03:05:00;;;;;;;57.77;29.87;;;3.40;99.90;;;;;;4971405;28;20749;-70
2023/02/06 03:08:04;;;;;;;62.33;30.63;;;3.30;99.90;;;;;;4972012;28;20444;-70
2023/02/06 03:11:08;;;;;;;52.20;27.63;;;3.40;99.90;;;;;;4969356;28;20435;-70
2023/02/06 03:13:36;;;;;;;50.23;29.13;;;3.30;99.90;;;;;;4971546;28;20443;-70
2023/02/06 03:16:30;;;;;;;50.77;31.07;;;3.30;99.90;;;;;;4974780;28;20427;-71
2023/02/06 03:19:18;;;;;;;52.80;27.97;;;3.30;99.90;;;;;;4971273;28;20455;-71
2023/02/06 03:21:46;;;;;;;52.03;29.33;;;3.30;99.90;;;;;;4971847;28;20506;-70
2023/02/06 03:24:35;;;;;;;51.17;29.40;;;3.30;99.90;;;;;;4973312;28;20521;-70
2023/02/06 03:27:05;;;;;;;55.53;28.77;;;3.40;99.90;;;;;;4971002;28;20440;-71
2023/02/06 03:29:33;;;;;;;51.87;30.57;;;3.40;99.90;;;;;;4968514;28;20460;-71
2023/02/06 03:32:11;;;;;;;53.57;29.00;;;3.50;99.90;;;;;;4964466;28;20443;-71
2023/02/06 03:34:50;;;;;;;56.70;30.70;;;3.50;99.90;;;;;;4970661;28;20462;-71
2023/02/06 03:37:16;;;;;;;55.53;28.93;;;3.40;99.90;;;;;;4973272;28;20533;-68
2023/02/06 03:39:42;;;;;;;49.57;27.60;;;3.40;99.90;;;;;;4972998;28;20598;-71
2023/02/06 03:42:10;;;;;;;51.80;28.93;;;3.50;99.90;;;;;;4972567;28;20180;-71
2023/02/06 03:44:40;;;;;;;57.67;28.67;;;3.50;99.90;;;;;;4972162;28;20471;-71
2023/02/06 03:47:08;;;;;;;58.63;30.30;;;3.50;99.90;;;;;;4970107;28;20519;-71
2023/02/06 03:49:38;;;;;;;44.93;28.33;;;3.60;99.90;;;;;;4970841;28;20451;-71
2023/02/06 03:52:04;;;;;;;51.17;29.70;;;3.50;99.90;;;;;;4969839;28;20954;-71
2023/02/06 03:54:31;;;;;;;47.90;26.77;;;3.50;99.90;;;;;;4971410;28;20439;-71
2023/02/06 03:57:03;;;;;;;43.20;26.00;;;3.50;99.90;;;;;;4972023;28;20222;-71
2023/02/06 03:59:29;;;;;;;46.43;26.90;;;3.50;99.90;;;;;;4968531;28;20474;-70
2023/02/06 04:01:57;;;;;;;51.40;30.97;;;3.50;99.90;;;;;;4971679;28;20451;-71
2023/02/06 04:04:28;;;;;;;55.87;31.80;;;3.50;99.90;;;;;;4971285;28;20478;-70
2023/02/06 04:07:07;;;;;;;52.97;28.60;;;3.60;99.90;;;;;;4971302;28;20960;-71
2023/02/06 04:09:33;;;;;;;45.13;26.50;;;3.60;99.90;;;;;;4969823;28;20484;-70
2023/02/06 04:11:58;;;;;;;44.77;26.60;;;3.50;99.90;;;;;;4971283;28;20454;-71
2023/02/06 04:14:24;;;;;;;47.30;29.50;;;3.50;99.90;;;;;;4973829;28;20700;-71
2023/02/06 04:16:50;;;;;;;44.50;28.27;;;3.40;99.90;;;;;;4972151;28;20188;-71
2023/02/06 04:19:15;;;;;;;51.90;29.70;;;3.40;99.90;;;;;;4971781;28;20204;-71
2023/02/06 04:21:41;;;;;;;47.90;27.47;;;3.40;99.90;;;;;;4972591;28;20685;-70
2023/02/06 04:24:06;;;;;;;46.83;27.97;;;3.40;99.90;;;;;;4972093;28;20275;-71
2023/02/06 04:26:32;;;;;;;50.23;29.00;;;3.30;99.90;;;;;;4972548;28;20200;-71
2023/02/06 04:28:57;;;;;;;45.87;27.20;;;3.40;99.90;;;;;;4969651;28;20214;-71
2023/02/06 04:31:23;;;;;;;46.43;28.73;;;3.40;99.90;;;;;;4973178;28;20183;-70
2023/02/06 04:33:48;;;;;;;49.03;28.93;;;3.40;99.90;;;;;;4972052;28;20184;-70
2023/02/06 04:36:14;;;;;;;50.43;29.13;;;3.30;99.90;;;;;;4968787;28;20302;-71
2023/02/06 04:38:39;;;;;;;51.77;31.03;;;3.30;99.90;;;;;;4971637;28;20207;-71
2023/02/06 04:41:06;;;;;;;49.33;30.00;;;3.30;99.90;;;;;;4967141;28;20180;-71
2023/02/06 04:43:32;;;;;;;41.00;26.73;;;3.30;99.90;;;;;;4972339;28;20263;-70
2023/02/06 04:45:58;;;;;;;44.83;29.80;;;3.30;99.90;;;;;;4971717;28;20475;-70
2023/02/06 04:48:24;;;;;;;50.53;29.57;;;3.30;99.90;;;;;;4970416;28;20538;-71
2023/02/06 04:50:50;;;;;;;49.53;28.90;;;3.20;99.90;;;;;;4971453;28;20219;-70
2023/02/06 04:53:16;;;;;;;56.27;28.57;;;3.20;99.90;;;;;;4971427;28;20187;-71
2023/02/06 04:55:42;;;;;;;50.67;29.83;;;3.20;99.90;;;;;;4970671;28;20510;-70
2023/02/06 04:58:08;;;;;;;48.30;29.13;;;3.30;99.90;;;;;;4972940;28;20500;-71
2023/02/06 05:00:34;;;;;;;50.80;28.70;;;3.20;99.90;;;;;;4974885;28;20555;-70
2023/02/06 05:02:59;;;;;;;55.97;30.77;;;3.20;99.90;;;;;;4975682;28;20814;-71
2023/02/06 05:05:25;;;;;;;45.57;29.17;;;3.20;99.90;;;;;;4974964;28;20178;-70
2023/02/06 05:07:50;;;;;;;47.57;29.90;;;3.10;99.90;;;;;;4975876;28;20184;-70
2023/02/06 05:10:16;;;;;;;48.90;29.37;;;3.20;99.90;;;;;;4972451;28;20473;-71
2023/02/06 05:12:42;;;;;;;48.63;29.70;;;3.20;99.90;;;;;;4974325;28;20208;-71
2023/02/06 05:15:08;;;;;;;45.70;28.53;;;3.20;99.90;;;;;;4975475;28;20184;-70
2023/02/06 05:17:34;;;;;;;48.40;28.57;;;3.20;99.90;;;;;;4973877;28;20757;-71
2023/02/06 05:19:59;;;;;;;50.80;30.13;;;3.10;99.90;;;;;;4972731;28;20459;-71
2023/02/06 05:22:25;;;;;;;43.53;28.03;;;3.10;99.90;;;;;;4974366;28;20187;-71
2023/02/06 05:24:50;;;;;;;45.97;29.27;;;3.10;99.90;;;;;;4978544;28;20222;-71
2023/02/06 05:27:16;;;;;;;43.40;28.80;;;3.10;99.90;;;;;;4974639;28;20267;-71
2023/02/06 05:29:41;;;;;;;39.50;28.93;;;3.00;99.90;;;;;;4976307;28;20303;-70
2023/02/06 05:32:07;;;;;;;37.80;27.60;;;3.00;99.90;;;;;;4974354;28;20562;-71
2023/02/06 05:34:32;;;;;;;38.80;29.00;;;3.00;99.90;;;;;;4974632;28;20179;-70
2023/02/06 05:36:58;;;;;;;38.67;27.23;;;2.90;99.90;;;;;;4975496;28;20196;-70
2023/02/06 05:39:24;;;;;;;41.73;27.77;;;2.90;99.90;;;;;;4975792;28;20204;-71
2023/02/06 05:41:49;;;;;;;39.47;26.90;;;2.90;99.90;;;;;;4974741;28;20651;-71
2023/02/06 05:44:15;;;;;;;37.93;25.57;;;2.90;99.90;;;;;;4974834;28;21022;-70
2023/02/06 05:46:40;;;;;;;41.37;27.50;;;2.90;99.90;;;;;;4973224;28;20558;-71
2023/02/06 05:49:06;;;;;;;40.30;27.83;;;2.90;99.90;;;;;;4973151;28;20232;-70
2023/02/06 05:51:31;;;;;;;40.90;28.77;;;2.90;99.90;;;;;;4973879;28;20211;-71
2023/02/06 05:53:57;;;;;;;42.07;28.83;;;3.00;99.90;;;;;;4974401;28;20192;-71
2023/02/06 05:56:22;;;;;;;37.63;26.67;;;3.10;99.90;;;;;;4974493;28;20215;-71
2023/02/06 05:58:48;;;;;;;39.00;25.20;;;3.00;99.90;;;;;;4973913;28;20565;-70
2023/02/06 06:01:13;;;;;;;48.13;27.20;;;3.10;99.90;;;;;;4972690;28;20255;-70
2023/02/06 06:03:39;;;;;;;39.93;27.53;;;3.10;99.90;;;;;;4972630;28;20208;-70
2023/02/06 06:06:05;;;;;;;37.60;27.37;;;3.10;99.90;;;;;;4970299;28;20204;-70
2023/02/06 06:08:31;;;;;;;35.03;26.27;;;3.10;99.90;;;;;;4973825;28;20717;-70
2023/02/06 06:10:56;;;;;;;40.37;26.70;;;3.10;99.90;;;;;;4965939;28;20518;-70
2023/02/06 06:13:22;;;;;;;39.67;27.90;;;3.10;99.90;;;;;;4972166;28;20616;-70
2023/02/06 06:15:51;;;;;;;39.23;26.60;;;3.20;99.90;;;;;;4973154;28;20180;-70
2023/02/06 06:18:18;;;;;;;40.73;26.70;;;3.10;99.90;;;;;;4973397;28;20204;-71
2023/02/06 06:20:43;;;;;;;39.83;29.03;;;3.10;99.90;;;;;;4973185;28;20446;-70
2023/02/06 06:23:09;;;;;;;36.20;26.97;;;3.20;99.90;;;;;;4974036;28;22157;-70
2023/02/06 06:25:35;;;;;;;40.30;25.70;;;3.10;99.90;;;;;;4975610;28;20647;-71
2023/02/06 06:28:01;;;;;;;40.67;28.87;;;3.20;99.90;;;;;;4972679;28;20195;-71
2023/02/06 06:30:27;;;;;;;33.57;25.53;;;3.10;99.90;;;;;;4971364;28;20186;-70
2023/02/06 06:32:52;;;;;;;34.60;24.70;;;3.10;99.90;;;;;;4972320;28;20938;-70
2023/02/06 06:35:18;;;;;;;36.57;25.80;;;3.00;99.90;;;;;;4972911;28;20219;-70
2023/02/06 06:37:43;;;;;;;39.60;27.23;;;3.10;99.90;;;;;;4973067;28;20173;-71
2023/02/06 06:40:09;;;;;;;42.00;29.00;;;3.10;99.90;;;;;;4975397;28;20180;-71
2023/02/06 06:42:35;;;;;;;36.20;27.30;;;3.10;99.90;;;;;;4971758;28;20173;-70
2023/02/06 06:45:00;;;;;;;40.53;28.73;;;3.10;99.90;;;;;;4975384;28;21001;-70
2023/02/06 06:47:26;;;;;;;32.77;25.60;;;3.10;99.90;;;;;;4973143;28;20172;-70
2023/02/06 06:49:51;;;;;;;36.03;27.40;;;3.00;99.90;;;;;;4969823;28;20207;-72
2023/02/06 06:52:17;;;;;;;35.60;28.80;;;3.00;99.90;;;;;;4973577;28;20179;-69
2023/02/06 06:54:43;;;;;;;31.10;25.00;;;2.90;99.90;;;;;;4972081;28;20259;-70
2023/02/06 06:57:08;;;;;;;43.60;25.20;;;3.00;99.90;;;;;;4972122;28;20188;-69
2023/02/06 06:59:34;;;;;;;31.27;24.40;;;2.90;99.90;;;;;;4973002;28;20331;-70
2023/02/06 07:01:59;;;;;;;36.80;24.00;;;3.00;99.90;;;;;;4973430;28;20188;-69
2023/02/06 07:04:29;;;;;;;31.47;22.77;;;2.90;99.90;;;;;;4972335;28;20235;-71
2023/02/06 07:06:54;;;;;;;29.23;22.90;;;2.90;99.90;;;;;;4973694;28;20236;-70
2023/02/06 07:09:20;;;;;;;33.70;24.80;;;2.90;99.90;;;;;;4971893;28;20577;-71
2023/02/06 07:11:45;;;;;;;29.17;21.47;;;2.90;99.90;;;;;;4968999;28;20183;-70
2023/02/06 07:14:11;;;;;;;29.70;21.80;;;2.80;99.90;;;;;;4974319;28;20310;-71
2023/02/06 07:16:36;;;;;;;31.27;22.93;;;2.90;99.90;;;;;;4974271;28;20180;-70
2023/02/06 07:19:02;;;;;;;30.50;23.20;;;2.90;99.90;;;;;;4973451;28;20226;-70
2023/02/06 07:21:28;;;;;;;33.73;22.37;;;2.80;99.90;;;;;;4973459;28;20651;-70
2023/02/06 07:23:53;;;;;;;33.30;22.23;;;2.90;99.90;;;;;;4972678;28;20204;-70
2023/02/06 07:26:19;;;;;;;26.20;19.03;;;3.00;99.90;;;;;;4972706;28;20169;-70
2023/02/06 07:28:45;;;;;;;26.17;20.53;;;2.90;99.90;;;;;;4971955;28;20320;-71
2023/02/06 07:31:10;;;;;;;26.70;21.27;;;2.90;99.90;;;;;;4972676;28;20168;-71
2023/02/06 07:33:36;;;;;;;25.00;19.93;;;2.80;99.90;;;;;;4972661;28;20665;-70
2023/02/06 07:36:01;;;;;;;28.53;18.80;;;2.90;99.90;;;;;;4972708;28;20686;-71
2023/02/06 07:38:27;;;;;;;26.80;19.10;;;2.90;99.90;;;;;;4972820;28;20666;-70
2023/02/06 07:40:52;;;;;;;25.67;19.33;;;2.90;99.90;;;;;;4973344;28;20667;-70
2023/02/06 07:43:18;;;;;;;29.67;19.67;;;2.90;99.90;;;;;;4973381;28;20270;-71
2023/02/06 07:45:44;;;;;;;26.47;18.10;;;3.00;99.90;;;;;;4973702;28;20168;-70
2023/02/06 07:48:09;;;;;;;23.20;18.93;;;3.00;99.90;;;;;;4973281;28;20560;-68
2023/02/06 07:50:35;;;;;;;31.10;20.40;;;3.00;99.90;;;;;;4958828;28;20180;-69
2023/02/06 07:53:01;;;;;;;25.73;19.57;;;3.00;99.90;;;;;;4939515;28;20195;-68
2023/02/06 07:55:27;;;;;;;26.37;19.97;;;3.10;99.90;;;;;;4968915;28;20284;-70
2023/02/06 07:57:54;;;;;;;25.37;19.20;;;3.10;99.90;;;;;;4972497;28;20635;-70
2023/02/06 08:00:19;;;;;;;25.43;18.87;;;3.20;99.90;;;;;;4969045;28;20646;-69
2023/02/06 08:02:45;;;;;;;25.10;18.60;;;3.20;99.90;;;;;;4972402;28;20455;-70
2023/02/06 08:05:11;;;;;;;27.23;19.30;;;3.30;99.90;;;;;;4973359;28;20180;-69
2023/02/06 08:07:36;;;;;;;23.53;18.50;;;3.20;99.90;;;;;;4973015;28;20179;-70
2023/02/06 08:10:02;;;;;;;23.53;16.27;;;3.20;99.90;;;;;;4972370;28;20279;-70
2023/02/06 08:12:29;;;;;;;28.73;18.90;;;3.30;99.90;;;;;;4969554;28;20326;-71
2023/02/06 08:14:54;;;;;;;27.97;19.20;;;3.40;99.90;;;;;;4972955;28;20443;-71
2023/02/06 08:17:20;;;;;;;21.57;17.93;;;3.40;99.90;;;;;;4973053;28;20424;-70
2023/02/06 08:19:46;;;;;;;24.87;17.30;;;3.50;99.90;;;;;;4972238;28;20196;-70
2023/02/06 08:22:11;;;;;;;23.47;17.90;;;3.60;99.90;;;;;;4969285;28;20184;-70
2023/02/06 08:24:37;;;;;;;26.20;18.63;;;3.70;99.90;;;;;;4973094;28;20208;-70
2023/02/06 08:27:02;;;;;;;18.67;15.73;;;3.70;99.90;;;;;;4972799;28;20204;-70
2023/02/06 08:29:28;;;;;;;20.10;16.30;;;3.60;99.90;;;;;;4972001;28;20200;-70
2023/02/06 08:31:53;;;;;;;22.50;16.90;;;3.70;99.90;;;;;;4969941;28;20254;-69
2023/02/06 08:34:19;;;;;;;20.70;16.20;;;3.70;99.90;;;;;;4975737;28;20181;-69
2023/02/06 08:36:45;;;;;;;22.17;16.90;;;3.60;99.90;;;;;;4976836;28;20184;-70
2023/02/06 08:39:14;;;;;;;23.50;16.20;;;3.70;99.90;;;;;;4976201;28;20721;-69
2023/02/06 08:41:41;;;;;;;19.20;15.70;;;3.70;99.90;;;;;;4973423;28;20195;-71
2023/02/06 08:44:13;;;;;;;22.40;17.10;;;3.80;99.90;;;;;;4976476;28;20498;-69
2023/02/06 08:46:39;;;;;;;23.27;16.07;;;3.70;99.90;;;;;;4975198;28;20427;-69
2023/02/06 08:49:10;;;;;;;20.57;16.07;;;3.70;99.90;;;;;;4975463;28;20447;-69
2023/02/06 08:51:36;;;;;;;20.47;16.50;;;3.70;99.90;;;;;;4973606;28;20427;-70
2023/02/06 08:54:05;;;;;;;21.10;17.37;;;3.60;99.90;;;;;;4976484;28;20415;-69
2023/02/06 08:56:31;;;;;;;21.43;15.23;;;3.60;99.90;;;;;;4976465;28;20646;-70
2023/02/06 08:58:58;;;;;;;21.10;16.13;;;3.60;99.90;;;;;;4975908;28;20482;-70
2023/02/06 09:01:25;;;;;;;22.40;14.73;;;3.60;99.90;;;;;;4972910;28;20514;-68
2023/02/06 09:03:54;;;;;;;20.80;15.20;;;3.50;99.90;;;;;;4976174;28;20460;-70
2023/02/06 09:06:20;;;;;;;17.40;14.50;;;3.60;99.90;;;;;;4976506;28;20411;-70
2023/02/06 09:08:46;;;;;;;23.73;17.23;;;3.80;99.90;;;;;;4975362;28;20444;-69
2023/02/06 09:11:16;;;;;;;19.77;15.37;;;3.80;99.90;;;;;;4971515;28;20428;-70
2023/02/06 09:13:46;;;;;;;19.80;14.70;;;3.70;99.90;;;;;;4976139;28;20183;-69
2023/02/06 09:16:12;;;;;;;18.57;13.27;;;3.50;99.90;;;;;;4975983;28;20424;-69
2023/02/06 09:18:38;;;;;;;22.63;16.10;;;3.40;99.90;;;;;;4975519;28;20446;-69
2023/02/06 09:21:14;;;;;;;21.90;15.70;;;3.30;99.90;;;;;;4971332;28;20459;-70
2023/02/06 09:23:42;;;;;;;17.30;13.10;;;3.40;99.90;;;;;;4975796;28;20490;-69
2023/02/06 09:26:10;;;;;;;15.60;12.27;;;3.50;99.90;;;;;;4976121;28;20447;-70
2023/02/06 09:28:35;;;;;;;19.43;13.43;;;3.50;99.90;;;;;;4974983;28;20439;-70
2023/02/06 09:31:01;;;;;;;14.77;11.83;;;3.50;99.90;;;;;;4972450;28;20423;-69
2023/02/06 09:33:27;;;;;;;16.13;13.13;;;3.50;99.90;;;;;;4991323;28;20646;-68
2023/02/06 09:36:06;;;;;;;17.77;11.77;;;3.50;99.90;;;;;;4981843;28;20219;-68
2023/02/06 09:38:32;;;;;;;14.87;12.60;;;3.40;99.90;;;;;;4975003;28;20196;-69
2023/02/06 09:41:00;;;;;;;17.07;12.43;;;3.30;99.90;;;;;;4972569;28;20916;-68
2023/02/06 09:43:28;;;;;;;16.30;11.90;;;3.20;99.90;;;;;;4975202;28;20204;-69
2023/02/06 09:45:59;;;;;;;14.53;10.80;;;3.30;99.90;;;;;;4974732;28;20857;-70
2023/02/06 09:48:28;;;;;;;15.17;11.27;;;3.30;99.90;;;;;;4955246;28;20455;-68
2023/02/06 09:51:19;;;;;;;11.93;10.07;;;3.50;99.90;;;;;;4959119;28;20434;-69
2023/02/06 09:54:04;;;;;;;13.97;9.57;;;3.60;99.90;;;;;;4974617;28;20929;-69
2023/02/06 09:56:53;;;;;;;17.13;9.60;;;3.60;99.90;;;;;;4975175;28;20925;-69
2023/02/06 09:59:30;;;;;;;14.57;10.03;;;3.70;99.90;;;;;;4974710;28;20447;-69
2023/02/06 10:02:21;;;;;;;15.50;10.33;;;3.90;99.90;;;;;;4972058;28;20466;-68
2023/02/06 10:05:21;;;;;;;11.30;8.40;;;3.80;99.90;;;;;;4975151;28;20517;-70
2023/02/06 10:07:56;;;;;;;11.70;9.10;;;3.90;99.90;;;;;;4975381;28;20420;-69
2023/02/06 10:10:37;;;;;;;13.90;9.13;;;4.00;99.90;;;;;;4972869;28;20430;-69
2023/02/06 10:13:26;;;;;;;9.93;8.73;;;4.10;99.90;;;;;;4974817;28;20427;-70
2023/02/06 10:15:56;;;;;;;12.80;9.10;;;4.00;99.90;;;;;;4965025;28;20439;-69
2023/02/06 10:18:47;;;;;;;11.30;7.90;;;4.00;99.90;;;;;;4974230;28;20450;-69
2023/02/06 10:21:31;;;;;;;10.07;8.20;;;4.00;99.90;;;;;;4971701;28;20984;-69
2023/02/06 10:24:34;;;;;;;11.60;8.83;;;4.20;99.90;;;;;;4976425;28;20463;-69
2023/02/06 10:27:03;;;;;;;11.40;9.00;;;4.10;99.90;;;;;;4990326;28;20421;-70
2023/02/06 10:29:31;;;;;;;16.27;10.90;;;4.10;99.90;;;;;;4991496;28;20446;-68
2023/02/06 10:32:06;;;;;;;6.97;6.27;;;4.20;99.90;;;;;;4976242;28;20431;-69
2023/02/06 10:34:50;;;;;;;6.70;5.30;;;4.10;99.90;;;;;;4974934;28;20419;-69
2023/02/06 10:37:51;;;;;;;9.03;6.60;;;4.00;99.90;;;;;;4974504;28;20438;-70
2023/02/06 10:40:22;;;;;;;7.43;6.73;;;4.00;99.90;;;;;;4972436;28;20407;-69
2023/02/06 10:42:50;;;;;;;6.53;5.70;;;4.00;99.90;;;;;;4977062;28;20502;-70
2023/02/06 10:45:22;;;;;;;8.70;6.30;;;4.00;99.90;;;;;;4993885;28;20423;-69
2023/02/06 10:48:11;;;;;;;7.40;6.07;;;4.10;99.90;;;;;;4978990;28;20415;-69
2023/02/06 10:50:44;;;;;;;6.50;5.80;;;4.00;99.90;;;;;;4960256;28;20440;-70
2023/02/06 10:53:33;;;;;;;6.30;5.70;;;3.90;99.90;;;;;;4973695;28;20432;-69
2023/02/06 10:56:08;;;;;;;8.00;5.13;;;3.80;99.90;;;;;;4973849;28;20445;-69
2023/02/06 10:58:40;;;;;;;5.83;5.23;;;3.70;99.90;;;;;;4973428;28;20439;-70
2023/02/06 11:01:08;;;;;;;5.90;5.23;;;3.70;99.90;;;;;;4970960;28;20508;-70
2023/02/06 11:03:36;;;;;;;7.40;5.10;;;3.70;99.90;;;;;;4974050;28;20459;-69
2023/02/06 11:06:02;;;;;;;7.37;5.37;;;3.70;99.90;;;;;;4972420;28;20440;-69
2023/02/06 11:08:32;;;;;;;7.13;5.13;;;3.70;99.90;;;;;;4962977;28;20452;-69
2023/02/06 11:11:16;;;;;;;7.13;5.47;;;3.80;99.90;;;;;;4970642;28;20965;-70
2023/02/06 11:13:43;;;;;;;5.73;5.23;;;3.70;99.90;;;;;;4973867;28;20502;-70
2023/02/06 11:16:14;;;;;;;6.83;5.37;;;3.60;99.90;;;;;;4973898;28;20517;-69
2023/02/06 11:18:42;;;;;;;6.57;4.50;;;3.70;99.90;;;;;;4973220;28;20800;-70
2023/02/06 11:21:09;;;;;;;6.73;5.10;;;3.70;99.90;;;;;;4970432;28;20450;-69
2023/02/06 11:23:35;;;;;;;5.40;4.90;;;3.70;99.90;;;;;;4973872;28;20502;-67
2023/02/06 11:26:14;;;;;;;6.73;5.30;;;3.70;99.90;;;;;;4973742;28;20451;-69
2023/02/06 11:29:14;;;;;;;6.30;5.07;;;3.80;99.90;;;;;;4973089;28;20568;-69
2023/02/06 11:31:52;;;;;;;6.17;5.00;;;3.90;99.90;;;;;;4962853;28;20431;-71
2023/02/06 11:34:20;;;;;;;5.33;4.83;;;4.00;99.90;;;;;;4973634;28;20432;-69
2023/02/06 11:36:52;;;;;;;8.57;4.50;;;4.20;99.90;;;;;;4973609;28;20423;-69
2023/02/06 11:39:25;;;;;;;6.73;4.70;;;4.30;99.90;;;;;;4972746;28;20439;-70
2023/02/06 11:42:21;;;;;;;6.40;5.40;;;4.20;99.90;;;;;;4970137;28;20510;-70
2023/02/06 11:44:48;;;;;;;4.70;4.30;;;4.10;99.90;;;;;;4973621;28;20463;-70
2023/02/06 11:47:33;;;;;;;7.57;5.30;;;4.00;99.90;;;;;;4973158;28;20848;-70
2023/02/06 11:50:13;;;;;;;9.27;5.90;;;4.00;99.90;;;;;;4968730;28;20950;-72
2023/02/06 11:52:44;;;;;;;5.50;4.43;;;4.10;99.90;;;;;;4970710;28;20851;-69
2023/02/06 11:55:43;;;;;;;5.80;5.20;;;4.10;99.90;;;;;;4972983;28;20446;-69
2023/02/06 11:58:11;;;;;;;6.67;4.37;;;4.30;99.90;;;;;;4971630;28;20511;-69
2023/02/06 12:00:53;;;;;;;5.87;4.37;;;4.30;99.90;;;;;;4970231;28;20435;-69
2023/02/06 12:03:41;;;;;;;5.87;4.77;;;4.50;99.90;;;;;;4972641;28;20451;-70
2023/02/06 12:06:14;;;;;;;5.83;5.23;;;4.60;99.90;;;;;;4972714;28;20432;-71
2023/02/06 12:08:48;;;;;;;6.07;5.47;;;4.60;99.90;;;;;;4971577;28;20494;-70
2023/02/06 12:11:39;;;;;;;8.10;5.70;;;4.60;99.90;;;;;;4969605;28;20428;-69
2023/02/06 12:14:16;;;;;;;5.60;4.93;;;4.70;99.90;;;;;;4973158;28;20511;-70
2023/02/06 12:16:44;;;;;;;5.27;4.67;;;4.70;99.90;;;;;;4972967;28;20423;-69
2023/02/06 12:19:32;;;;;;;5.87;5.20;;;4.60;99.90;;;;;;4972286;28;20502;-70
2023/02/06 12:22:03;;;;;;;7.83;5.60;;;4.60;99.90;;;;;;4969338;28;20428;-70
2023/02/06 12:24:42;;;;;;;7.23;5.50;;;4.50;99.90;;;;;;4972879;28;20456;-69
2023/02/06 12:27:25;;;;;;;6.83;5.20;;;4.60;99.90;;;;;;4972956;28;20521;-70
2023/02/06 12:29:58;;;;;;;6.23;5.63;;;4.50;99.90;;;;;;4972064;28;20448;-69
2023/02/06 12:32:31;;;;;;;7.83;7.17;;;4.50;99.90;;;;;;4969636;28;20430;-69
2023/02/06 12:35:02;;;;;;;7.60;6.10;;;4.30;99.90;;;;;;4972505;28;20420;-70
2023/02/06 12:37:55;;;;;;;6.90;6.30;;;4.30;99.90;;;;;;4974347;28;20917;-69
2023/02/06 12:40:39;;;;;;;8.50;5.90;;;4.30;99.90;;;;;;4986684;28;20414;-69
2023/02/06 12:43:12;;;;;;;9.07;7.43;;;4.30;99.90;;;;;;4972587;28;20423;-69
2023/02/06 12:46:05;;;;;;;10.03;7.07;;;4.30;99.90;;;;;;4972606;28;20543;-69
2023/02/06 12:48:49;;;;;;;7.00;5.93;;;4.40;99.90;;;;;;4952464;29;20467;-69
2023/02/06 12:51:31;;;;;;;6.80;5.53;;;4.50;99.90;;;;;;4959532;28;20791;-69
2023/02/06 12:54:27;;;;;;;8.10;7.23;;;4.60;99.90;;;;;;4972606;28;20419;-70
2023/02/06 12:57:14;;;;;;;8.20;6.27;;;4.60;99.90;;;;;;4972627;28;20874;-70
2023/02/06 13:00:00;;;;;;;11.17;7.40;;;4.50;99.90;;;;;;4971685;28;20440;-68